sensor_id;sensor_type;location;lat;lon;timestamp;P1;durP1;ratioP1;P2;durP2;ratioP2
32323;SDS011;25666;44.350;9.222;2024-01-30T00:01:41;42.88;;;19.33;;
32323;SDS011;25666;44.350;9.222;2024-01-30T00:04:06;48.65;;;19.45;;
32323;SDS011;25666;44.350;9.222;2024-01-30T00:06:32;32.25;;;15.63;;
32323;SDS011;25666;44.350;9.222;2024-01-30T00:08:57;32.42;;;14.38;;
32323;SDS011;25666;44.350;9.222;2024-01-30T00:11:23;26.50;;;13.50;;
32323;SDS011;25666;44.350;9.222;2024-01-30T00:13:51;22.48;;;11.27;;
32323;SDS011;25666;44.350;9.222;2024-01-30T00:16:20;17.45;;;10.13;;
32323;SDS011;25666;44.350;9.222;2024-01-30T00:18:47;15.32;;;10.02;;
32323;SDS011;25666;44.350;9.222;2024-01-30T00:21:13;18.67;;;9.73;;
32323;SDS011;25666;44.350;9.222;2024-01-30T00:23:39;14.32;;;9.57;;
32323;SDS011;25666;44.350;9.222;2024-01-30T00:26:04;19.75;;;9.65;;
32323;SDS011;25666;44.350;9.222;2024-01-30T00:28:30;18.40;;;9.40;;
32323;SDS011;25666;44.350;9.222;2024-01-30T00:30:56;15.55;;;9.18;;
32323;SDS011;25666;44.350;9.222;2024-01-30T00:33:21;23.77;;;11.35;;
32323;SDS011;25666;44.350;9.222;2024-01-30T00:35:47;21.95;;;10.73;;
32323;SDS011;25666;44.350;9.222;2024-01-30T00:38:12;21.67;;;11.00;;
32323;SDS011;25666;44.350;9.222;2024-01-30T00:40:38;18.60;;;10.77;;
32323;SDS011;25666;44.350;9.222;2024-01-30T00:43:04;21.42;;;11.05;;
32323;SDS011;25666;44.350;9.222;2024-01-30T00:45:29;20.33;;;11.95;;
32323;SDS011;25666;44.350;9.222;2024-01-30T00:47:55;21.90;;;12.82;;
32323;SDS011;25666;44.350;9.222;2024-01-30T00:50:20;22.88;;;12.48;;
32323;SDS011;25666;44.350;9.222;2024-01-30T00:52:46;22.75;;;11.85;;
32323;SDS011;25666;44.350;9.222;2024-01-30T00:55:11;20.20;;;10.93;;
32323;SDS011;25666;44.350;9.222;2024-01-30T00:57:38;22.23;;;12.00;;
32323;SDS011;25666;44.350;9.222;2024-01-30T01:00:03;20.80;;;11.35;;
32323;SDS011;25666;44.350;9.222;2024-01-30T01:02:32;19.42;;;11.25;;
32323;SDS011;25666;44.350;9.222;2024-01-30T01:04:57;21.77;;;12.18;;
32323;SDS011;25666;44.350;9.222;2024-01-30T01:07:23;25.98;;;13.77;;
32323;SDS011;25666;44.350;9.222;2024-01-30T01:09:48;23.75;;;12.32;;
32323;SDS011;25666;44.350;9.222;2024-01-30T01:12:14;18.83;;;10.35;;
32323;SDS011;25666;44.350;9.222;2024-01-30T01:14:39;18.17;;;10.50;;
32323;SDS011;25666;44.350;9.222;2024-01-30T01:17:05;16.92;;;10.00;;
32323;SDS011;25666;44.350;9.222;2024-01-30T01:19:30;18.92;;;10.65;;
32323;SDS011;25666;44.350;9.222;2024-01-30T01:21:56;16.08;;;10.50;;
32323;SDS011;25666;44.350;9.222;2024-01-30T01:24:22;23.38;;;10.90;;
32323;SDS011;25666;44.350;9.222;2024-01-30T01:26:47;13.80;;;8.90;;
32323;SDS011;25666;44.350;9.222;2024-01-30T01:29:13;14.02;;;8.77;;
32323;SDS011;25666;44.350;9.222;2024-01-30T01:31:38;15.55;;;8.82;;
32323;SDS011;25666;44.350;9.222;2024-01-30T01:34:11;14.50;;;7.63;;
32323;SDS011;25666;44.350;9.222;2024-01-30T01:36:37;16.00;;;8.75;;
32323;SDS011;25666;44.350;9.222;2024-01-30T01:39:02;17.77;;;10.10;;
32323;SDS011;25666;44.350;9.222;2024-01-30T01:41:32;13.23;;;8.57;;
32323;SDS011;25666;44.350;9.222;2024-01-30T01:43:58;13.93;;;8.70;;
32323;SDS011;25666;44.350;9.222;2024-01-30T01:46:26;16.85;;;8.77;;
32323;SDS011;25666;44.350;9.222;2024-01-30T01:48:52;18.48;;;10.48;;
32323;SDS011;25666;44.350;9.222;2024-01-30T01:51:20;30.75;;;15.45;;
32323;SDS011;25666;44.350;9.222;2024-01-30T01:53:47;35.10;;;17.88;;
32323;SDS011;25666;44.350;9.222;2024-01-30T01:56:12;32.20;;;15.35;;
32323;SDS011;25666;44.350;9.222;2024-01-30T01:58:38;31.33;;;16.15;;
32323;SDS011;25666;44.350;9.222;2024-01-30T02:01:05;30.17;;;13.65;;
32323;SDS011;25666;44.350;9.222;2024-01-30T02:03:31;25.35;;;13.10;;
32323;SDS011;25666;44.350;9.222;2024-01-30T02:05:57;26.17;;;12.75;;
32323;SDS011;25666;44.350;9.222;2024-01-30T02:08:23;26.45;;;12.40;;
32323;SDS011;25666;44.350;9.222;2024-01-30T02:10:49;24.63;;;13.45;;
32323;SDS011;25666;44.350;9.222;2024-01-30T02:13:15;21.40;;;11.57;;
32323;SDS011;25666;44.350;9.222;2024-01-30T02:15:40;18.05;;;10.38;;
32323;SDS011;25666;44.350;9.222;2024-01-30T02:18:06;19.45;;;9.73;;
32323;SDS011;25666;44.350;9.222;2024-01-30T02:20:31;14.50;;;9.05;;
32323;SDS011;25666;44.350;9.222;2024-01-30T02:23:01;19.67;;;8.98;;
32323;SDS011;25666;44.350;9.222;2024-01-30T02:25:31;14.35;;;8.40;;
32323;SDS011;25666;44.350;9.222;2024-01-30T02:28:02;17.20;;;9.60;;
32323;SDS011;25666;44.350;9.222;2024-01-30T02:30:27;14.77;;;8.95;;
32323;SDS011;25666;44.350;9.222;2024-01-30T02:32:53;13.98;;;8.60;;
32323;SDS011;25666;44.350;9.222;2024-01-30T02:35:18;17.20;;;8.98;;
32323;SDS011;25666;44.350;9.222;2024-01-30T02:37:44;18.55;;;10.65;;
32323;SDS011;25666;44.350;9.222;2024-01-30T02:40:10;17.45;;;9.18;;
32323;SDS011;25666;44.350;9.222;2024-01-30T02:42:35;17.35;;;9.10;;
32323;SDS011;25666;44.350;9.222;2024-01-30T02:45:01;15.43;;;8.45;;
32323;SDS011;25666;44.350;9.222;2024-01-30T02:47:26;23.77;;;9.98;;
32323;SDS011;25666;44.350;9.222;2024-01-30T02:49:52;19.83;;;10.63;;
32323;SDS011;25666;44.350;9.222;2024-01-30T02:52:17;21.27;;;11.20;;
32323;SDS011;25666;44.350;9.222;2024-01-30T02:54:44;24.58;;;10.88;;
32323;SDS011;25666;44.350;9.222;2024-01-30T02:57:09;23.00;;;11.05;;
32323;SDS011;25666;44.350;9.222;2024-01-30T02:59:35;17.83;;;10.48;;
32323;SDS011;25666;44.350;9.222;2024-01-30T03:02:01;20.40;;;10.02;;
32323;SDS011;25666;44.350;9.222;2024-01-30T03:04:27;28.45;;;10.43;;
32323;SDS011;25666;44.350;9.222;2024-01-30T03:06:52;21.15;;;10.23;;
32323;SDS011;25666;44.350;9.222;2024-01-30T03:09:18;16.98;;;9.27;;
32323;SDS011;25666;44.350;9.222;2024-01-30T03:11:43;15.20;;;8.32;;
32323;SDS011;25666;44.350;9.222;2024-01-30T03:14:09;15.00;;;7.97;;
32323;SDS011;25666;44.350;9.222;2024-01-30T03:16:36;20.10;;;8.82;;
32323;SDS011;25666;44.350;9.222;2024-01-30T03:19:03;14.50;;;8.15;;
32323;SDS011;25666;44.350;9.222;2024-01-30T03:21:30;15.75;;;9.25;;
32323;SDS011;25666;44.350;9.222;2024-01-30T03:23:55;13.07;;;7.88;;
32323;SDS011;25666;44.350;9.222;2024-01-30T03:26:21;15.27;;;8.88;;
32323;SDS011;25666;44.350;9.222;2024-01-30T03:28:46;18.85;;;9.63;;
32323;SDS011;25666;44.350;9.222;2024-01-30T03:31:13;15.30;;;8.45;;
32323;SDS011;25666;44.350;9.222;2024-01-30T03:33:39;15.27;;;8.68;;
32323;SDS011;25666;44.350;9.222;2024-01-30T03:36:05;16.40;;;7.95;;
32323;SDS011;25666;44.350;9.222;2024-01-30T03:38:31;16.10;;;7.93;;
32323;SDS011;25666;44.350;9.222;2024-01-30T03:40:58;18.25;;;8.38;;
32323;SDS011;25666;44.350;9.222;2024-01-30T03:43:24;15.77;;;7.68;;
32323;SDS011;25666;44.350;9.222;2024-01-30T03:45:49;12.95;;;7.95;;
32323;SDS011;25666;44.350;9.222;2024-01-30T03:48:15;17.65;;;7.65;;
32323;SDS011;25666;44.350;9.222;2024-01-30T03:50:41;13.20;;;6.95;;
32323;SDS011;25666;44.350;9.222;2024-01-30T03:53:06;10.95;;;7.07;;
32323;SDS011;25666;44.350;9.222;2024-01-30T03:55:32;10.43;;;6.72;;
32323;SDS011;25666;44.350;9.222;2024-01-30T03:57:57;11.93;;;7.13;;
32323;SDS011;25666;44.350;9.222;2024-01-30T04:00:23;11.27;;;7.03;;
32323;SDS011;25666;44.350;9.222;2024-01-30T04:02:48;10.43;;;6.53;;
32323;SDS011;25666;44.350;9.222;2024-01-30T04:05:16;12.38;;;7.22;;
32323;SDS011;25666;44.350;9.222;2024-01-30T04:07:42;11.13;;;6.32;;
32323;SDS011;25666;44.350;9.222;2024-01-30T04:10:08;15.52;;;6.93;;
32323;SDS011;25666;44.350;9.222;2024-01-30T04:12:35;10.18;;;6.28;;
32323;SDS011;25666;44.350;9.222;2024-01-30T04:15:01;10.45;;;7.10;;
32323;SDS011;25666;44.350;9.222;2024-01-30T04:17:27;11.15;;;6.63;;
32323;SDS011;25666;44.350;9.222;2024-01-30T04:19:54;20.67;;;7.85;;
32323;SDS011;25666;44.350;9.222;2024-01-30T04:22:19;10.20;;;7.20;;
32323;SDS011;25666;44.350;9.222;2024-01-30T04:24:45;14.18;;;7.75;;
32323;SDS011;25666;44.350;9.222;2024-01-30T04:27:11;13.73;;;6.75;;
32323;SDS011;25666;44.350;9.222;2024-01-30T04:29:36;13.20;;;7.22;;
32323;SDS011;25666;44.350;9.222;2024-01-30T04:32:02;15.25;;;7.65;;
32323;SDS011;25666;44.350;9.222;2024-01-30T04:34:28;12.85;;;7.78;;
32323;SDS011;25666;44.350;9.222;2024-01-30T04:36:53;9.00;;;6.40;;
32323;SDS011;25666;44.350;9.222;2024-01-30T04:39:19;15.27;;;8.55;;
32323;SDS011;25666;44.350;9.222;2024-01-30T04:41:44;14.10;;;7.03;;
32323;SDS011;25666;44.350;9.222;2024-01-30T04:44:10;14.60;;;7.53;;
32323;SDS011;25666;44.350;9.222;2024-01-30T04:46:35;9.30;;;6.43;;
32323;SDS011;25666;44.350;9.222;2024-01-30T04:49:01;12.45;;;7.68;;
32323;SDS011;25666;44.350;9.222;2024-01-30T04:51:26;15.30;;;6.55;;
32323;SDS011;25666;44.350;9.222;2024-01-30T04:53:52;11.48;;;6.75;;
32323;SDS011;25666;44.350;9.222;2024-01-30T04:56:17;11.27;;;6.65;;
32323;SDS011;25666;44.350;9.222;2024-01-30T04:58:43;13.68;;;6.03;;
32323;SDS011;25666;44.350;9.222;2024-01-30T05:01:08;147.80;;;20.00;;
32323;SDS011;25666;44.350;9.222;2024-01-30T05:03:34;19.80;;;7.70;;
32323;SDS011;25666;44.350;9.222;2024-01-30T05:06:00;13.25;;;7.22;;
32323;SDS011;25666;44.350;9.222;2024-01-30T05:08:25;8.48;;;6.25;;
32323;SDS011;25666;44.350;9.222;2024-01-30T05:10:51;11.13;;;6.80;;
32323;SDS011;25666;44.350;9.222;2024-01-30T05:13:16;12.25;;;6.70;;
32323;SDS011;25666;44.350;9.222;2024-01-30T05:15:42;13.73;;;8.65;;
32323;SDS011;25666;44.350;9.222;2024-01-30T05:18:08;19.90;;;9.90;;
32323;SDS011;25666;44.350;9.222;2024-01-30T05:20:33;14.48;;;8.07;;
32323;SDS011;25666;44.350;9.222;2024-01-30T05:22:59;15.02;;;7.93;;
32323;SDS011;25666;44.350;9.222;2024-01-30T05:25:24;14.00;;;8.63;;
32323;SDS011;25666;44.350;9.222;2024-01-30T05:27:50;13.82;;;6.72;;
32323;SDS011;25666;44.350;9.222;2024-01-30T05:30:15;12.23;;;7.45;;
32323;SDS011;25666;44.350;9.222;2024-01-30T05:32:41;15.70;;;8.13;;
32323;SDS011;25666;44.350;9.222;2024-01-30T05:35:07;14.07;;;7.55;;
32323;SDS011;25666;44.350;9.222;2024-01-30T05:37:35;14.05;;;7.20;;
32323;SDS011;25666;44.350;9.222;2024-01-30T05:40:00;12.95;;;7.93;;
32323;SDS011;25666;44.350;9.222;2024-01-30T05:42:26;15.18;;;8.02;;
32323;SDS011;25666;44.350;9.222;2024-01-30T05:44:52;14.40;;;8.57;;
32323;SDS011;25666;44.350;9.222;2024-01-30T05:47:17;16.02;;;8.73;;
32323;SDS011;25666;44.350;9.222;2024-01-30T05:49:43;13.07;;;10.10;;
32323;SDS011;25666;44.350;9.222;2024-01-30T05:52:08;12.05;;;8.88;;
32323;SDS011;25666;44.350;9.222;2024-01-30T05:54:34;12.07;;;8.20;;
32323;SDS011;25666;44.350;9.222;2024-01-30T05:57:00;15.70;;;7.72;;
32323;SDS011;25666;44.350;9.222;2024-01-30T05:59:25;12.30;;;8.23;;
32323;SDS011;25666;44.350;9.222;2024-01-30T06:01:51;9.55;;;7.03;;
32323;SDS011;25666;44.350;9.222;2024-01-30T06:04:17;12.00;;;8.38;;
32323;SDS011;25666;44.350;9.222;2024-01-30T06:06:42;11.43;;;6.60;;
32323;SDS011;25666;44.350;9.222;2024-01-30T06:09:08;11.80;;;7.47;;
32323;SDS011;25666;44.350;9.222;2024-01-30T06:11:38;8.25;;;6.38;;
32323;SDS011;25666;44.350;9.222;2024-01-30T06:14:03;11.55;;;7.25;;
32323;SDS011;25666;44.350;9.222;2024-01-30T06:16:29;13.30;;;7.68;;
32323;SDS011;25666;44.350;9.222;2024-01-30T06:18:57;12.52;;;7.53;;
32323;SDS011;25666;44.350;9.222;2024-01-30T06:21:25;17.45;;;7.90;;
32323;SDS011;25666;44.350;9.222;2024-01-30T06:23:50;13.88;;;8.23;;
32323;SDS011;25666;44.350;9.222;2024-01-30T06:26:16;11.25;;;7.80;;
32323;SDS011;25666;44.350;9.222;2024-01-30T06:28:41;14.85;;;8.48;;
32323;SDS011;25666;44.350;9.222;2024-01-30T06:31:07;11.75;;;8.85;;
32323;SDS011;25666;44.350;9.222;2024-01-30T06:33:32;15.77;;;8.80;;
32323;SDS011;25666;44.350;9.222;2024-01-30T06:35:58;15.55;;;9.05;;
32323;SDS011;25666;44.350;9.222;2024-01-30T06:38:23;14.07;;;8.52;;
32323;SDS011;25666;44.350;9.222;2024-01-30T06:40:49;14.20;;;7.47;;
32323;SDS011;25666;44.350;9.222;2024-01-30T06:43:14;14.63;;;7.32;;
32323;SDS011;25666;44.350;9.222;2024-01-30T06:45:40;20.65;;;7.72;;
32323;SDS011;25666;44.350;9.222;2024-01-30T06:48:08;12.63;;;7.55;;
32323;SDS011;25666;44.350;9.222;2024-01-30T06:50:33;13.65;;;7.63;;
32323;SDS011;25666;44.350;9.222;2024-01-30T06:52:59;14.35;;;7.32;;
32323;SDS011;25666;44.350;9.222;2024-01-30T06:55:25;12.70;;;7.22;;
32323;SDS011;25666;44.350;9.222;2024-01-30T06:57:50;10.90;;;7.82;;
32323;SDS011;25666;44.350;9.222;2024-01-30T07:00:16;19.13;;;8.60;;
32323;SDS011;25666;44.350;9.222;2024-01-30T07:02:41;11.52;;;8.50;;
32323;SDS011;25666;44.350;9.222;2024-01-30T07:05:07;12.27;;;9.30;;
32323;SDS011;25666;44.350;9.222;2024-01-30T07:07:33;21.08;;;10.98;;
32323;SDS011;25666;44.350;9.222;2024-01-30T07:09:58;15.50;;;8.98;;
32323;SDS011;25666;44.350;9.222;2024-01-30T07:12:24;9.82;;;6.57;;
32323;SDS011;25666;44.350;9.222;2024-01-30T07:14:51;16.80;;;6.75;;
32323;SDS011;25666;44.350;9.222;2024-01-30T07:17:17;13.77;;;6.13;;
32323;SDS011;25666;44.350;9.222;2024-01-30T07:19:42;12.90;;;6.60;;
32323;SDS011;25666;44.350;9.222;2024-01-30T07:22:08;14.70;;;7.65;;
32323;SDS011;25666;44.350;9.222;2024-01-30T07:24:34;14.25;;;8.30;;
32323;SDS011;25666;44.350;9.222;2024-01-30T07:26:59;9.80;;;6.03;;
32323;SDS011;25666;44.350;9.222;2024-01-30T07:29:25;12.63;;;7.78;;
32323;SDS011;25666;44.350;9.222;2024-01-30T07:31:51;12.35;;;8.90;;
32323;SDS011;25666;44.350;9.222;2024-01-30T07:34:16;12.32;;;9.73;;
32323;SDS011;25666;44.350;9.222;2024-01-30T07:36:42;16.52;;;9.63;;
32323;SDS011;25666;44.350;9.222;2024-01-30T07:39:08;19.88;;;10.30;;
32323;SDS011;25666;44.350;9.222;2024-01-30T07:41:35;14.45;;;10.00;;
32323;SDS011;25666;44.350;9.222;2024-01-30T07:44:00;14.05;;;6.90;;
32323;SDS011;25666;44.350;9.222;2024-01-30T07:46:26;16.60;;;7.00;;
32323;SDS011;25666;44.350;9.222;2024-01-30T07:48:51;14.35;;;8.10;;
32323;SDS011;25666;44.350;9.222;2024-01-30T07:51:17;27.55;;;8.32;;
32323;SDS011;25666;44.350;9.222;2024-01-30T07:53:42;16.42;;;8.60;;
32323;SDS011;25666;44.350;9.222;2024-01-30T07:56:08;12.90;;;8.00;;
32323;SDS011;25666;44.350;9.222;2024-01-30T07:58:33;18.85;;;7.38;;
32323;SDS011;25666;44.350;9.222;2024-01-30T08:00:59;13.10;;;6.70;;
32323;SDS011;25666;44.350;9.222;2024-01-30T08:03:25;15.73;;;7.70;;
32323;SDS011;25666;44.350;9.222;2024-01-30T08:05:51;15.27;;;8.18;;
32323;SDS011;25666;44.350;9.222;2024-01-30T08:08:17;18.05;;;9.27;;
32323;SDS011;25666;44.350;9.222;2024-01-30T08:10:42;19.60;;;7.93;;
32323;SDS011;25666;44.350;9.222;2024-01-30T08:13:08;14.10;;;9.10;;
32323;SDS011;25666;44.350;9.222;2024-01-30T08:15:34;16.58;;;8.90;;
32323;SDS011;25666;44.350;9.222;2024-01-30T08:18:00;22.48;;;10.00;;
32323;SDS011;25666;44.350;9.222;2024-01-30T08:20:26;25.25;;;11.75;;
32323;SDS011;25666;44.350;9.222;2024-01-30T08:22:51;31.73;;;14.68;;
32323;SDS011;25666;44.350;9.222;2024-01-30T08:25:17;32.92;;;13.95;;
32323;SDS011;25666;44.350;9.222;2024-01-30T08:27:43;35.38;;;15.73;;
32323;SDS011;25666;44.350;9.222;2024-01-30T08:30:10;42.85;;;17.58;;
32323;SDS011;25666;44.350;9.222;2024-01-30T08:32:35;46.38;;;21.23;;
32323;SDS011;25666;44.350;9.222;2024-01-30T08:35:01;33.28;;;15.75;;
32323;SDS011;25666;44.350;9.222;2024-01-30T08:37:29;26.23;;;14.38;;
32323;SDS011;25666;44.350;9.222;2024-01-30T08:39:55;30.63;;;14.55;;
32323;SDS011;25666;44.350;9.222;2024-01-30T08:42:20;39.45;;;15.95;;
32323;SDS011;25666;44.350;9.222;2024-01-30T08:44:48;37.22;;;16.30;;
32323;SDS011;25666;44.350;9.222;2024-01-30T08:47:18;31.77;;;12.27;;
32323;SDS011;25666;44.350;9.222;2024-01-30T08:49:44;32.70;;;13.45;;
32323;SDS011;25666;44.350;9.222;2024-01-30T08:52:10;26.85;;;13.38;;
32323;SDS011;25666;44.350;9.222;2024-01-30T08:54:36;29.35;;;13.63;;
32323;SDS011;25666;44.350;9.222;2024-01-30T08:57:01;26.80;;;12.48;;
32323;SDS011;25666;44.350;9.222;2024-01-30T08:59:27;34.70;;;14.57;;
32323;SDS011;25666;44.350;9.222;2024-01-30T09:01:53;27.52;;;12.73;;
32323;SDS011;25666;44.350;9.222;2024-01-30T09:04:23;23.17;;;12.10;;
32323;SDS011;25666;44.350;9.222;2024-01-30T09:06:49;21.88;;;10.27;;
32323;SDS011;25666;44.350;9.222;2024-01-30T09:09:14;30.77;;;11.88;;
32323;SDS011;25666;44.350;9.222;2024-01-30T09:11:40;25.65;;;10.23;;
32323;SDS011;25666;44.350;9.222;2024-01-30T09:14:06;21.90;;;10.05;;
32323;SDS011;25666;44.350;9.222;2024-01-30T09:16:31;21.23;;;9.05;;
32323;SDS011;25666;44.350;9.222;2024-01-30T09:18:57;20.70;;;10.68;;
32323;SDS011;25666;44.350;9.222;2024-01-30T09:21:23;19.92;;;9.85;;
32323;SDS011;25666;44.350;9.222;2024-01-30T09:23:48;19.73;;;9.55;;
32323;SDS011;25666;44.350;9.222;2024-01-30T09:26:14;21.42;;;9.32;;
32323;SDS011;25666;44.350;9.222;2024-01-30T09:28:39;20.05;;;9.07;;
32323;SDS011;25666;44.350;9.222;2024-01-30T09:31:10;22.80;;;8.13;;
32323;SDS011;25666;44.350;9.222;2024-01-30T09:33:36;20.90;;;8.98;;
32323;SDS011;25666;44.350;9.222;2024-01-30T09:36:02;23.15;;;9.75;;
32323;SDS011;25666;44.350;9.222;2024-01-30T09:38:28;19.02;;;9.27;;
32323;SDS011;25666;44.350;9.222;2024-01-30T09:40:54;21.73;;;9.40;;
32323;SDS011;25666;44.350;9.222;2024-01-30T09:43:22;17.73;;;9.15;;
32323;SDS011;25666;44.350;9.222;2024-01-30T09:45:52;21.85;;;10.45;;
32323;SDS011;25666;44.350;9.222;2024-01-30T09:48:19;26.70;;;12.10;;
32323;SDS011;25666;44.350;9.222;2024-01-30T09:50:45;21.05;;;10.35;;
32323;SDS011;25666;44.350;9.222;2024-01-30T09:53:11;18.58;;;9.45;;
32323;SDS011;25666;44.350;9.222;2024-01-30T09:55:39;20.20;;;9.63;;
32323;SDS011;25666;44.350;9.222;2024-01-30T09:58:08;16.38;;;9.25;;
32323;SDS011;25666;44.350;9.222;2024-01-30T10:00:33;18.08;;;9.73;;
32323;SDS011;25666;44.350;9.222;2024-01-30T10:02:59;23.83;;;8.68;;
32323;SDS011;25666;44.350;9.222;2024-01-30T10:05:27;19.88;;;8.60;;
32323;SDS011;25666;44.350;9.222;2024-01-30T10:07:59;14.60;;;7.95;;
32323;SDS011;25666;44.350;9.222;2024-01-30T10:10:25;15.75;;;6.15;;
32323;SDS011;25666;44.350;9.222;2024-01-30T10:12:51;13.27;;;6.75;;
32323;SDS011;25666;44.350;9.222;2024-01-30T10:15:17;15.93;;;6.18;;
32323;SDS011;25666;44.350;9.222;2024-01-30T10:17:44;12.40;;;5.53;;
32323;SDS011;25666;44.350;9.222;2024-01-30T10:20:10;11.60;;;5.40;;
32323;SDS011;25666;44.350;9.222;2024-01-30T10:22:36;9.55;;;5.10;;
32323;SDS011;25666;44.350;9.222;2024-01-30T10:25:02;12.98;;;4.88;;
32323;SDS011;25666;44.350;9.222;2024-01-30T10:27:28;13.88;;;4.88;;
32323;SDS011;25666;44.350;9.222;2024-01-30T10:29:54;11.90;;;5.18;;
32323;SDS011;25666;44.350;9.222;2024-01-30T10:32:20;10.27;;;4.90;;
32323;SDS011;25666;44.350;9.222;2024-01-30T10:34:46;9.65;;;5.20;;
32323;SDS011;25666;44.350;9.222;2024-01-30T10:37:12;20.40;;;6.32;;
32323;SDS011;25666;44.350;9.222;2024-01-30T10:39:41;8.57;;;4.90;;
32323;SDS011;25666;44.350;9.222;2024-01-30T10:42:15;17.50;;;5.53;;
32323;SDS011;25666;44.350;9.222;2024-01-30T10:44:56;12.23;;;5.40;;
32323;SDS011;25666;44.350;9.222;2024-01-30T10:47:34;13.57;;;6.00;;
32323;SDS011;25666;44.350;9.222;2024-01-30T10:50:01;16.52;;;5.28;;
32323;SDS011;25666;44.350;9.222;2024-01-30T10:52:28;14.88;;;5.75;;
32323;SDS011;25666;44.350;9.222;2024-01-30T10:54:55;9.98;;;5.25;;
32323;SDS011;25666;44.350;9.222;2024-01-30T10:57:25;15.52;;;4.97;;
32323;SDS011;25666;44.350;9.222;2024-01-30T10:59:55;8.80;;;4.15;;
32323;SDS011;25666;44.350;9.222;2024-01-30T11:02:23;6.90;;;4.18;;
32323;SDS011;25666;44.350;9.222;2024-01-30T11:04:50;7.53;;;3.83;;
32323;SDS011;25666;44.350;9.222;2024-01-30T11:07:24;10.23;;;4.15;;
32323;SDS011;25666;44.350;9.222;2024-01-30T11:09:52;6.80;;;4.23;;
32323;SDS011;25666;44.350;9.222;2024-01-30T11:12:21;6.43;;;3.65;;
32323;SDS011;25666;44.350;9.222;2024-01-30T11:14:48;8.10;;;3.70;;
32323;SDS011;25666;44.350;9.222;2024-01-30T11:17:15;10.20;;;4.15;;
32323;SDS011;25666;44.350;9.222;2024-01-30T11:19:41;8.40;;;4.35;;
32323;SDS011;25666;44.350;9.222;2024-01-30T11:22:07;6.50;;;4.13;;
32323;SDS011;25666;44.350;9.222;2024-01-30T11:24:42;8.85;;;3.83;;
32323;SDS011;25666;44.350;9.222;2024-01-30T11:27:08;10.10;;;5.07;;
32323;SDS011;25666;44.350;9.222;2024-01-30T11:29:35;11.05;;;4.65;;
32323;SDS011;25666;44.350;9.222;2024-01-30T11:32:01;12.15;;;4.75;;
32323;SDS011;25666;44.350;9.222;2024-01-30T11:34:27;10.43;;;4.68;;
32323;SDS011;25666;44.350;9.222;2024-01-30T11:36:56;12.15;;;4.80;;
32323;SDS011;25666;44.350;9.222;2024-01-30T11:39:24;13.77;;;5.25;;
32323;SDS011;25666;44.350;9.222;2024-01-30T11:41:52;9.65;;;4.28;;
32323;SDS011;25666;44.350;9.222;2024-01-30T11:44:21;9.20;;;5.05;;
32323;SDS011;25666;44.350;9.222;2024-01-30T11:46:48;8.18;;;4.78;;
32323;SDS011;25666;44.350;9.222;2024-01-30T11:49:14;10.32;;;5.55;;
32323;SDS011;25666;44.350;9.222;2024-01-30T11:51:40;6.53;;;4.22;;
32323;SDS011;25666;44.350;9.222;2024-01-30T11:54:06;7.80;;;4.47;;
32323;SDS011;25666;44.350;9.222;2024-01-30T11:56:33;9.68;;;4.72;;
32323;SDS011;25666;44.350;9.222;2024-01-30T11:58:58;9.43;;;5.28;;
32323;SDS011;25666;44.350;9.222;2024-01-30T12:01:25;16.95;;;5.43;;
32323;SDS011;25666;44.350;9.222;2024-01-30T12:03:52;8.93;;;4.35;;
32323;SDS011;25666;44.350;9.222;2024-01-30T12:06:17;9.85;;;4.75;;
32323;SDS011;25666;44.350;9.222;2024-01-30T12:08:43;10.82;;;4.82;;
32323;SDS011;25666;44.350;9.222;2024-01-30T12:11:18;7.68;;;4.13;;
32323;SDS011;25666;44.350;9.222;2024-01-30T12:13:44;14.00;;;4.90;;
32323;SDS011;25666;44.350;9.222;2024-01-30T12:16:10;7.88;;;4.22;;
32323;SDS011;25666;44.350;9.222;2024-01-30T12:18:35;7.10;;;4.00;;
32323;SDS011;25666;44.350;9.222;2024-01-30T12:21:01;14.27;;;3.90;;
32323;SDS011;25666;44.350;9.222;2024-01-30T12:23:27;15.25;;;5.05;;
32323;SDS011;25666;44.350;9.222;2024-01-30T12:25:53;8.85;;;4.60;;
32323;SDS011;25666;44.350;9.222;2024-01-30T12:28:19;7.30;;;4.60;;
32323;SDS011;25666;44.350;9.222;2024-01-30T12:30:45;9.30;;;4.75;;
32323;SDS011;25666;44.350;9.222;2024-01-30T12:33:15;8.43;;;5.57;;
32323;SDS011;25666;44.350;9.222;2024-01-30T12:35:45;7.47;;;4.90;;
32323;SDS011;25666;44.350;9.222;2024-01-30T12:38:11;11.75;;;4.22;;
32323;SDS011;25666;44.350;9.222;2024-01-30T12:40:37;14.45;;;5.72;;
32323;SDS011;25666;44.350;9.222;2024-01-30T12:43:03;9.93;;;5.18;;
32323;SDS011;25666;44.350;9.222;2024-01-30T12:45:28;6.53;;;4.38;;
32323;SDS011;25666;44.350;9.222;2024-01-30T12:47:55;10.40;;;4.55;;
32323;SDS011;25666;44.350;9.222;2024-01-30T12:50:20;11.02;;;4.93;;
32323;SDS011;25666;44.350;9.222;2024-01-30T12:52:46;8.35;;;4.35;;
32323;SDS011;25666;44.350;9.222;2024-01-30T12:55:11;13.25;;;4.30;;
32323;SDS011;25666;44.350;9.222;2024-01-30T12:57:38;7.38;;;4.20;;
32323;SDS011;25666;44.350;9.222;2024-01-30T13:00:04;8.18;;;4.13;;
32323;SDS011;25666;44.350;9.222;2024-01-30T13:02:33;5.82;;;3.75;;
32323;SDS011;25666;44.350;9.222;2024-01-30T13:05:04;8.73;;;4.20;;
32323;SDS011;25666;44.350;9.222;2024-01-30T13:07:31;4.75;;;3.50;;
32323;SDS011;25666;44.350;9.222;2024-01-30T13:09:56;11.68;;;5.03;;
32323;SDS011;25666;44.350;9.222;2024-01-30T13:12:28;6.75;;;4.53;;
32323;SDS011;25666;44.350;9.222;2024-01-30T13:14:54;6.60;;;4.25;;
32323;SDS011;25666;44.350;9.222;2024-01-30T13:17:19;7.35;;;3.95;;
32323;SDS011;25666;44.350;9.222;2024-01-30T13:19:45;11.10;;;4.55;;
32323;SDS011;25666;44.350;9.222;2024-01-30T13:22:10;8.77;;;4.65;;
32323;SDS011;25666;44.350;9.222;2024-01-30T13:24:36;6.63;;;3.70;;
32323;SDS011;25666;44.350;9.222;2024-01-30T13:27:02;8.30;;;3.83;;
32323;SDS011;25666;44.350;9.222;2024-01-30T13:29:30;4.15;;;3.30;;
32323;SDS011;25666;44.350;9.222;2024-01-30T13:31:56;7.85;;;4.03;;
32323;SDS011;25666;44.350;9.222;2024-01-30T13:34:21;8.82;;;4.40;;
32323;SDS011;25666;44.350;9.222;2024-01-30T13:36:47;9.68;;;4.43;;
32323;SDS011;25666;44.350;9.222;2024-01-30T13:39:14;6.07;;;3.97;;
32323;SDS011;25666;44.350;9.222;2024-01-30T13:41:41;8.48;;;4.00;;
32323;SDS011;25666;44.350;9.222;2024-01-30T13:44:07;6.40;;;4.13;;
32323;SDS011;25666;44.350;9.222;2024-01-30T13:46:33;6.45;;;4.10;;
32323;SDS011;25666;44.350;9.222;2024-01-30T13:48:59;6.90;;;4.07;;
32323;SDS011;25666;44.350;9.222;2024-01-30T13:51:25;8.70;;;4.80;;
32323;SDS011;25666;44.350;9.222;2024-01-30T13:53:51;9.60;;;3.47;;
32323;SDS011;25666;44.350;9.222;2024-01-30T13:56:16;5.65;;;4.22;;
32323;SDS011;25666;44.350;9.222;2024-01-30T13:58:42;8.20;;;4.47;;
32323;SDS011;25666;44.350;9.222;2024-01-30T14:01:07;6.75;;;4.60;;
32323;SDS011;25666;44.350;9.222;2024-01-30T14:03:35;10.43;;;4.30;;
32323;SDS011;25666;44.350;9.222;2024-01-30T14:06:00;11.10;;;4.57;;
32323;SDS011;25666;44.350;9.222;2024-01-30T14:08:26;6.63;;;4.05;;
32323;SDS011;25666;44.350;9.222;2024-01-30T14:10:53;6.43;;;4.68;;
32323;SDS011;25666;44.350;9.222;2024-01-30T14:13:20;12.13;;;4.95;;
32323;SDS011;25666;44.350;9.222;2024-01-30T14:15:47;6.85;;;3.90;;
32323;SDS011;25666;44.350;9.222;2024-01-30T14:18:13;8.57;;;4.70;;
32323;SDS011;25666;44.350;9.222;2024-01-30T14:20:39;12.48;;;5.13;;
32323;SDS011;25666;44.350;9.222;2024-01-30T14:23:04;8.05;;;4.05;;
32323;SDS011;25666;44.350;9.222;2024-01-30T14:25:30;7.55;;;4.78;;
32323;SDS011;25666;44.350;9.222;2024-01-30T14:27:55;13.00;;;5.25;;